Time;durP1;ratioP1;P1;durP2;ratioP2;P2;SDS_P1;SDS_P2;PMS_P1;PMS_P2;Temp;Humidity;BMP_temperature;BMP_pressure;BME280_temperature;BME280_humidity;BME280_pressure;Samples;Min_cycle;Max_cycle;Signal;HPM_P1;HPM_P2
2021/03/18 00:01:45;;;;;;;1.88;1.60;;;;;;;;;;5034626;28;20246;-51
2021/03/18 00:04:13;;;;;;;2.00;1.77;;;;;;;;;;5028091;28;20184;-51
2021/03/18 00:06:40;;;;;;;1.33;1.23;;;;;;;;;;5020176;28;20211;-51
2021/03/18 00:09:07;;;;;;;1.70;1.60;;;;;;;;;;5036020;28;20191;-51
2021/03/18 00:11:33;;;;;;;1.85;1.67;;;;;;;;;;5034401;28;20180;-51
2021/03/18 00:13:59;;;;;;;1.30;1.20;;;;;;;;;;5031310;28;20168;-51
2021/03/18 00:16:26;;;;;;;1.50;1.40;;;;;;;;;;5028324;28;20185;-51
2021/03/18 00:18:53;;;;;;;1.38;1.27;;;;;;;;;;5025574;28;20562;-51
2021/03/18 00:21:20;;;;;;;1.90;1.38;;;;;;;;;;5037013;28;20190;-51
2021/03/18 00:23:46;;;;;;;1.35;1.25;;;;;;;;;;5026724;28;20184;-51
2021/03/18 00:26:12;;;;;;;1.60;1.50;;;;;;;;;;5036460;28;20180;-51
2021/03/18 00:28:38;;;;;;;1.42;1.33;;;;;;;;;;5034303;28;20180;-51
2021/03/18 00:31:06;;;;;;;1.40;1.30;;;;;;;;;;5035685;28;20287;-51
2021/03/18 00:33:32;;;;;;;1.90;1.67;;;;;;;;;;5029097;28;20208;-51
2021/03/18 00:35:58;;;;;;;1.77;1.55;;;;;;;;;;5029358;28;20279;-51
2021/03/18 00:38:25;;;;;;;1.40;1.30;;;;;;;;;;5033377;28;20222;-51
2021/03/18 00:40:54;;;;;;;1.40;1.27;;;;;;;;;;5016824;28;20460;-51
2021/03/18 00:43:21;;;;;;;1.40;1.30;;;;;;;;;;5017158;28;20185;-51
2021/03/18 00:45:48;;;;;;;1.55;1.45;;;;;;;;;;5030319;28;20214;-51
2021/03/18 00:48:15;;;;;;;1.73;1.40;;;;;;;;;;5031811;28;20322;-51
2021/03/18 00:50:42;;;;;;;1.60;1.50;;;;;;;;;;5036734;28;20262;-51
2021/03/18 00:53:09;;;;;;;1.48;1.38;;;;;;;;;;5026648;28;20196;-51
2021/03/18 00:55:35;;;;;;;1.45;1.35;;;;;;;;;;5016085;28;20212;-51
2021/03/18 00:58:01;;;;;;;2.05;1.30;;;;;;;;;;5016798;28;20548;-51
2021/03/18 01:00:30;;;;;;;2.15;1.30;;;;;;;;;;5029805;28;20207;-51
2021/03/18 01:02:56;;;;;;;1.10;1.10;;;;;;;;;;5026795;28;20188;-51
2021/03/18 01:05:34;;;;;;;1.20;1.20;;;;;;;;;;5032781;28;20194;-51
2021/03/18 01:08:00;;;;;;;1.10;1.00;;;;;;;;;;5028999;28;20188;-51
2021/03/18 01:10:28;;;;;;;1.20;1.10;;;;;;;;;;5016538;28;20177;-51
2021/03/18 01:12:54;;;;;;;1.38;1.20;;;;;;;;;;5016446;28;20212;-51
2021/03/18 01:15:22;;;;;;;1.00;1.00;;;;;;;;;;5015848;28;20184;-51
2021/03/18 01:17:48;;;;;;;1.20;1.10;;;;;;;;;;5018550;28;20432;-51
2021/03/18 01:20:15;;;;;;;2.08;1.25;;;;;;;;;;5032839;28;20210;-51
2021/03/18 01:22:41;;;;;;;1.20;1.10;;;;;;;;;;5034436;28;20553;-51
2021/03/18 01:25:08;;;;;;;1.10;1.00;;;;;;;;;;5035256;28;20438;-51
2021/03/18 01:27:34;;;;;;;1.20;1.10;;;;;;;;;;5026393;28;20188;-51
2021/03/18 01:30:00;;;;;;;1.25;1.15;;;;;;;;;;5032152;28;20587;-51
2021/03/18 01:32:26;;;;;;;1.00;0.90;;;;;;;;;;5034278;28;20198;-51
2021/03/18 01:34:52;;;;;;;1.23;1.13;;;;;;;;;;5043474;28;20262;-51
2021/03/18 01:37:18;;;;;;;1.17;1.17;;;;;;;;;;5033049;28;20180;-51
2021/03/18 01:39:44;;;;;;;1.35;1.20;;;;;;;;;;5035845;28;20179;-51
2021/03/18 01:42:10;;;;;;;1.20;1.10;;;;;;;;;;5035033;28;20367;-51
2021/03/18 01:44:36;;;;;;;1.00;0.98;;;;;;;;;;5034451;28;20187;-51
2021/03/18 01:47:03;;;;;;;1.00;1.00;;;;;;;;;;5033580;28;20271;-51
2021/03/18 01:49:29;;;;;;;1.20;1.10;;;;;;;;;;5023907;28;20570;-51
2021/03/18 01:51:56;;;;;;;1.02;1.02;;;;;;;;;;5028706;28;20196;-51
2021/03/18 01:54:22;;;;;;;0.85;0.85;;;;;;;;;;5035047;28;20172;-51
2021/03/18 01:56:48;;;;;;;0.90;0.90;;;;;;;;;;5025881;28;20172;-51
2021/03/18 01:59:14;;;;;;;1.98;1.00;;;;;;;;;;5015723;28;20171;-51
2021/03/18 02:01:40;;;;;;;1.08;0.90;;;;;;;;;;5015663;28;20192;-51
2021/03/18 02:04:06;;;;;;;0.90;0.90;;;;;;;;;;5015102;28;20172;-51
2021/03/18 02:06:32;;;;;;;0.90;0.90;;;;;;;;;;5027721;28;20294;-51
2021/03/18 02:08:58;;;;;;;0.90;0.80;;;;;;;;;;5033213;28;20266;-51
2021/03/18 02:11:24;;;;;;;1.20;1.10;;;;;;;;;;5034532;28;20251;-51
2021/03/18 02:13:50;;;;;;;0.80;0.80;;;;;;;;;;5034518;28;20231;-51
2021/03/18 02:16:16;;;;;;;1.23;1.00;;;;;;;;;;5033456;28;20549;-51
2021/03/18 02:18:42;;;;;;;1.00;1.00;;;;;;;;;;5035292;28;20460;-51
2021/03/18 02:21:24;;;;;;;0.90;0.90;;;;;;;;;;5029001;28;20172;-51
2021/03/18 02:24:02;;;;;;;1.00;1.00;;;;;;;;;;5015634;28;20172;-51
2021/03/18 02:26:34;;;;;;;1.92;1.20;;;;;;;;;;5015358;28;20183;-51
2021/03/18 02:29:12;;;;;;;0.98;0.98;;;;;;;;;;5015191;28;20187;-51
2021/03/18 02:32:02;;;;;;;0.85;0.80;;;;;;;;;;5016204;28;20176;-51
2021/03/18 02:34:27;;;;;;;1.00;0.90;;;;;;;;;;4998278;28;20211;-51
2021/03/18 02:37:03;;;;;;;0.82;0.82;;;;;;;;;;5024811;28;20183;-51
2021/03/18 02:39:32;;;;;;;0.88;0.88;;;;;;;;;;5039168;28;20209;-52
2021/03/18 02:42:01;;;;;;;1.13;0.98;;;;;;;;;;5027810;28;20292;-51
2021/03/18 02:44:31;;;;;;;0.73;0.70;;;;;;;;;;5018717;28;20180;-51
2021/03/18 02:47:00;;;;;;;1.10;1.00;;;;;;;;;;5032279;28;20178;-51
2021/03/18 02:49:27;;;;;;;0.90;0.90;;;;;;;;;;5027526;28;20196;-51
2021/03/18 02:51:55;;;;;;;0.88;0.88;;;;;;;;;;5034231;28;20196;-51
2021/03/18 02:54:21;;;;;;;0.90;0.90;;;;;;;;;;5037912;28;20199;-51
2021/03/18 02:56:48;;;;;;;1.00;1.00;;;;;;;;;;5026668;28;20246;-51
2021/03/18 02:59:16;;;;;;;0.90;0.90;;;;;;;;;;5019018;28;20168;-51
2021/03/18 03:01:43;;;;;;;0.75;0.75;;;;;;;;;;5019792;28;20208;-51
2021/03/18 03:04:10;;;;;;;0.70;0.70;;;;;;;;;;5019539;28;20471;-51
2021/03/18 03:06:36;;;;;;;0.90;0.90;;;;;;;;;;5018801;28;20227;-51
2021/03/18 03:09:04;;;;;;;0.75;0.75;;;;;;;;;;5018347;28;20173;-51
2021/03/18 03:11:32;;;;;;;1.00;0.95;;;;;;;;;;5032816;28;20190;-51
2021/03/18 03:13:58;;;;;;;0.85;0.80;;;;;;;;;;5037260;28;20182;-51
2021/03/18 03:16:25;;;;;;;0.98;0.85;;;;;;;;;;5021638;28;20173;-51
2021/03/18 03:18:52;;;;;;;0.90;0.90;;;;;;;;;;5018044;28;20647;-51
2021/03/18 03:21:18;;;;;;;0.80;0.80;;;;;;;;;;5018489;28;20567;-51
2021/03/18 03:23:45;;;;;;;1.13;0.88;;;;;;;;;;5029288;28;20913;-51
2021/03/18 03:26:12;;;;;;;0.90;0.90;;;;;;;;;;5027866;28;20263;-51
2021/03/18 03:28:38;;;;;;;1.00;1.00;;;;;;;;;;5018613;28;20188;-51
2021/03/18 03:31:04;;;;;;;0.80;0.80;;;;;;;;;;5018625;28;20173;-51
2021/03/18 03:33:30;;;;;;;0.80;0.80;;;;;;;;;;5018439;28;20210;-51
2021/03/18 03:35:57;;;;;;;0.73;0.73;;;;;;;;;;5043631;28;20293;-51
2021/03/18 03:38:23;;;;;;;0.80;0.80;;;;;;;;;;5018651;28;20565;-51
2021/03/18 03:40:51;;;;;;;1.00;0.85;;;;;;;;;;5024583;28;20259;-51
2021/03/18 03:43:17;;;;;;;0.80;0.80;;;;;;;;;;5038086;28;20168;-51
2021/03/18 03:45:43;;;;;;;0.80;0.80;;;;;;;;;;5031877;28;20215;-51
2021/03/18 03:48:10;;;;;;;0.88;0.88;;;;;;;;;;5017209;28;20195;-51
2021/03/18 03:50:36;;;;;;;0.90;0.90;;;;;;;;;;5034882;28;20291;-51
2021/03/18 03:53:11;;;;;;;0.80;0.80;;;;;;;;;;5037639;28;20198;-51
2021/03/18 03:55:56;;;;;;;0.90;0.90;;;;;;;;;;5034179;28;20183;-51
2021/03/18 03:58:41;;;;;;;0.90;0.90;;;;;;;;;;5034755;28;20171;-51
2021/03/18 04:01:10;;;;;;;0.70;0.70;;;;;;;;;;5037432;28;20188;-51
2021/03/18 04:03:36;;;;;;;0.90;0.90;;;;;;;;;;5037719;28;20199;-51
2021/03/18 04:06:04;;;;;;;0.80;0.80;;;;;;;;;;5025095;28;20180;-51
2021/03/18 04:08:31;;;;;;;0.80;0.80;;;;;;;;;;5028849;28;20187;-51
2021/03/18 04:10:57;;;;;;;1.13;1.02;;;;;;;;;;5037529;28;20179;-51
2021/03/18 04:13:25;;;;;;;0.80;0.80;;;;;;;;;;5037186;28;20204;-51
2021/03/18 04:15:52;;;;;;;0.80;0.80;;;;;;;;;;5036305;28;20176;-51
2021/03/18 04:18:18;;;;;;;1.00;1.00;;;;;;;;;;5029105;28;20181;-51
2021/03/18 04:20:45;;;;;;;1.00;0.90;;;;;;;;;;5033781;28;20180;-51
2021/03/18 04:23:11;;;;;;;1.13;0.80;;;;;;;;;;5033859;28;20550;-51
2021/03/18 04:25:38;;;;;;;1.00;0.90;;;;;;;;;;5017108;28;20468;-51
2021/03/18 04:28:05;;;;;;;1.88;0.90;;;;;;;;;;5026804;28;20191;-51
2021/03/18 04:30:31;;;;;;;0.90;0.90;;;;;;;;;;5027364;28;20266;-51
2021/03/18 04:32:58;;;;;;;0.82;0.82;;;;;;;;;;5023466;28;20223;-51
2021/03/18 04:35:25;;;;;;;0.70;0.70;;;;;;;;;;5036189;28;20246;-51
2021/03/18 04:37:51;;;;;;;0.88;0.88;;;;;;;;;;5036896;28;20259;-51
2021/03/18 04:40:19;;;;;;;1.00;1.00;;;;;;;;;;5036909;28;20172;-51
2021/03/18 04:42:45;;;;;;;0.80;0.80;;;;;;;;;;5019320;28;20207;-51
2021/03/18 04:45:12;;;;;;;0.73;0.73;;;;;;;;;;5018846;28;20202;-51
2021/03/18 04:47:39;;;;;;;1.00;1.00;;;;;;;;;;5036450;28;20654;-51
2021/03/18 04:50:06;;;;;;;1.13;1.02;;;;;;;;;;5036632;28;20196;-51
2021/03/18 04:52:32;;;;;;;3.58;1.00;;;;;;;;;;5032286;28;20267;-51
2021/03/18 04:54:59;;;;;;;1.02;1.02;;;;;;;;;;5015682;28;20188;-51
2021/03/18 04:57:26;;;;;;;0.80;0.80;;;;;;;;;;5026087;28;20195;-51
2021/03/18 04:59:53;;;;;;;4.28;1.30;;;;;;;;;;5035785;28;20562;-51
2021/03/18 05:02:19;;;;;;;5.85;1.63;;;;;;;;;;5018932;28;20210;-51
2021/03/18 05:04:46;;;;;;;8.80;2.70;;;;;;;;;;5016059;28;20200;-51
2021/03/18 05:07:15;;;;;;;12.02;2.83;;;;;;;;;;5018803;28;20172;-51
2021/03/18 05:09:43;;;;;;;6.57;1.98;;;;;;;;;;5035882;28;20182;-51
2021/03/18 05:12:10;;;;;;;3.80;1.67;;;;;;;;;;5020729;28;20235;-51
2021/03/18 05:14:36;;;;;;;7.10;2.10;;;;;;;;;;5016056;28;20440;-51
2021/03/18 05:17:02;;;;;;;6.38;2.20;;;;;;;;;;5016223;28;20263;-51
2021/03/18 05:19:29;;;;;;;6.50;2.17;;;;;;;;;;5023716;28;20334;-51
2021/03/18 05:21:55;;;;;;;6.38;2.00;;;;;;;;;;5035323;28;20211;-51
2021/03/18 05:24:21;;;;;;;4.63;1.73;;;;;;;;;;5035353;28;20233;-51
2021/03/18 05:26:47;;;;;;;5.97;2.08;;;;;;;;;;5028211;28;20196;-51
2021/03/18 05:29:14;;;;;;;9.13;2.10;;;;;;;;;;5035991;28;20168;-51
2021/03/18 05:31:40;;;;;;;4.93;2.28;;;;;;;;;;5034881;28;20630;-51
2021/03/18 05:34:07;;;;;;;4.55;2.22;;;;;;;;;;5028433;28;20215;-51
2021/03/18 05:36:33;;;;;;;3.22;1.73;;;;;;;;;;5022347;28;20180;-51
2021/03/18 05:38:59;;;;;;;3.33;1.90;;;;;;;;;;5015060;28;20275;-51
2021/03/18 05:41:25;;;;;;;2.13;1.60;;;;;;;;;;5017880;28;20192;-51
2021/03/18 05:43:51;;;;;;;3.47;1.77;;;;;;;;;;5027092;28;20214;-51
2021/03/18 05:46:17;;;;;;;3.47;2.10;;;;;;;;;;5035173;28;20180;-51
2021/03/18 05:48:44;;;;;;;4.07;2.25;;;;;;;;;;5035474;28;20233;-51
2021/03/18 05:51:14;;;;;;;4.65;2.15;;;;;;;;;;5035191;28;20225;-51
2021/03/18 05:53:42;;;;;;;4.70;1.88;;;;;;;;;;5020600;28;20670;-51
2021/03/18 05:56:09;;;;;;;3.33;2.03;;;;;;;;;;5031946;28;20189;-52
2021/03/18 05:58:35;;;;;;;4.13;2.00;;;;;;;;;;5035126;28;20172;-51
2021/03/18 06:01:01;;;;;;;4.55;2.08;;;;;;;;;;5028884;28;20182;-51
2021/03/18 06:03:27;;;;;;;3.33;2.00;;;;;;;;;;5022723;28;20567;-51
2021/03/18 06:05:53;;;;;;;3.63;2.00;;;;;;;;;;5033103;28;20182;-51
2021/03/18 06:08:19;;;;;;;4.60;2.08;;;;;;;;;;5021756;28;20184;-51
2021/03/18 06:10:46;;;;;;;2.97;2.05;;;;;;;;;;5021256;28;20258;-51
2021/03/18 06:13:12;;;;;;;3.50;2.33;;;;;;;;;;5015551;28;20200;-51
2021/03/18 06:15:38;;;;;;;5.75;2.03;;;;;;;;;;5017627;28;20177;-51
2021/03/18 06:18:05;;;;;;;3.35;2.35;;;;;;;;;;5035329;28;20184;-51
2021/03/18 06:20:31;;;;;;;3.60;2.13;;;;;;;;;;5033975;28;20458;-51
2021/03/18 06:23:00;;;;;;;2.63;2.42;;;;;;;;;;5035066;28;20164;-51
2021/03/18 06:25:31;;;;;;;4.18;2.13;;;;;;;;;;5014613;28;20196;-51
2021/03/18 06:28:12;;;;;;;5.15;2.30;;;;;;;;;;5025183;28;20184;-51
2021/03/18 06:30:38;;;;;;;2.60;2.30;;;;;;;;;;5034295;28;20202;-51
2021/03/18 06:33:20;;;;;;;2.88;2.40;;;;;;;;;;5019139;28;20200;-51
2021/03/18 06:35:46;;;;;;;2.20;2.00;;;;;;;;;;5028235;28;20184;-51
2021/03/18 06:38:12;;;;;;;2.17;2.03;;;;;;;;;;5014240;28;20211;-51
2021/03/18 06:40:40;;;;;;;4.75;2.50;;;;;;;;;;5034415;28;20175;-51
2021/03/18 06:43:06;;;;;;;2.90;2.38;;;;;;;;;;5027977;28;20240;-51
2021/03/18 06:45:36;;;;;;;2.38;2.13;;;;;;;;;;5022820;28;20192;-51
2021/03/18 06:48:04;;;;;;;2.40;2.03;;;;;;;;;;5015236;28;20223;-51
2021/03/18 06:50:32;;;;;;;2.63;2.40;;;;;;;;;;5021758;28;20274;-51
2021/03/18 06:52:58;;;;;;;3.92;2.33;;;;;;;;;;5027282;28;20210;-51
2021/03/18 06:55:33;;;;;;;3.15;2.42;;;;;;;;;;5027974;28;20176;-51
2021/03/18 06:58:15;;;;;;;3.80;2.80;;;;;;;;;;5014332;28;20238;-51
2021/03/18 07:00:41;;;;;;;2.72;2.38;;;;;;;;;;5019711;28;20194;-51
2021/03/18 07:03:09;;;;;;;2.88;2.42;;;;;;;;;;5033383;28;20219;-51
2021/03/18 07:05:39;;;;;;;3.97;2.60;;;;;;;;;;5014630;28;20173;-52
2021/03/18 07:08:06;;;;;;;4.50;2.60;;;;;;;;;;5028781;28;20271;-51
2021/03/18 07:10:36;;;;;;;4.47;3.13;;;;;;;;;;5033925;28;20242;-51
2021/03/18 07:13:37;;;;;;;3.28;2.65;;;;;;;;;;5033901;28;20214;-51
2021/03/18 07:16:08;;;;;;;3.70;2.30;;;;;;;;;;4960171;28;20182;-51
2021/03/18 07:18:35;;;;;;;2.67;2.47;;;;;;;;;;5043478;28;20229;-51
2021/03/18 07:21:03;;;;;;;3.20;2.50;;;;;;;;;;5048118;28;20175;-52
2021/03/18 07:23:36;;;;;;;3.08;2.45;;;;;;;;;;5030547;28;20196;-52
2021/03/18 07:26:10;;;;;;;2.60;2.40;;;;;;;;;;5025942;28;20372;-52
2021/03/18 07:28:36;;;;;;;4.38;2.50;;;;;;;;;;5037394;28;20246;-52
2021/03/18 07:31:02;;;;;;;3.13;2.78;;;;;;;;;;5037351;28;20263;-52
2021/03/18 07:33:28;;;;;;;3.40;2.70;;;;;;;;;;5024765;28;20282;-52
2021/03/18 07:35:55;;;;;;;3.20;2.90;;;;;;;;;;5037173;28;20168;-52
2021/03/18 07:38:21;;;;;;;5.18;2.70;;;;;;;;;;5033687;28;20555;-52
2021/03/18 07:40:46;;;;;;;4.70;2.72;;;;;;;;;;5037685;28;20175;-52
2021/03/18 07:43:15;;;;;;;3.30;2.85;;;;;;;;;;5038013;28;20544;-52
2021/03/18 07:45:42;;;;;;;3.10;2.63;;;;;;;;;;5037687;28;20183;-52
2021/03/18 07:48:09;;;;;;;3.78;2.92;;;;;;;;;;5037690;28;20168;-52
2021/03/18 07:50:39;;;;;;;3.55;3.00;;;;;;;;;;5038270;28;20248;-52
2021/03/18 07:53:05;;;;;;;3.05;2.75;;;;;;;;;;5034793;28;20310;-52
2021/03/18 07:55:32;;;;;;;3.15;2.85;;;;;;;;;;5031003;28;20530;-52
2021/03/18 07:57:58;;;;;;;3.65;2.67;;;;;;;;;;5037744;28;20277;-52
2021/03/18 08:00:25;;;;;;;4.30;2.78;;;;;;;;;;5027629;28;20494;-52
2021/03/18 08:02:52;;;;;;;3.10;2.80;;;;;;;;;;5017920;28;20173;-52
2021/03/18 08:05:37;;;;;;;3.15;2.80;;;;;;;;;;5024857;28;20191;-52
2021/03/18 08:08:03;;;;;;;3.78;3.42;;;;;;;;;;5037753;28;20168;-54
2021/03/18 08:10:29;;;;;;;3.97;3.30;;;;;;;;;;5035175;28;20718;-53
2021/03/18 08:12:56;;;;;;;4.55;3.22;;;;;;;;;;5033016;28;20200;-53
2021/03/18 08:15:41;;;;;;;5.38;3.15;;;;;;;;;;5032662;28;20226;-53
2021/03/18 08:18:13;;;;;;;3.92;3.03;;;;;;;;;;5050600;28;20554;-53
2021/03/18 08:20:42;;;;;;;3.55;2.95;;;;;;;;;;5047330;28;20242;-53
2021/03/18 08:23:26;;;;;;;5.15;3.78;;;;;;;;;;5054228;28;20572;-53
2021/03/18 08:26:04;;;;;;;4.95;3.40;;;;;;;;;;5043247;28;20282;-53
2021/03/18 08:28:34;;;;;;;3.50;3.20;;;;;;;;;;5017373;28;20168;-53
2021/03/18 08:31:00;;;;;;;3.53;3.00;;;;;;;;;;5035122;28;20222;-53
2021/03/18 08:33:36;;;;;;;3.58;3.28;;;;;;;;;;5037141;28;20227;-53
2021/03/18 08:36:21;;;;;;;3.60;3.30;;;;;;;;;;5053907;28;20171;-53
2021/03/18 08:38:52;;;;;;;3.85;3.10;;;;;;;;;;5037012;28;20180;-53
2021/03/18 08:41:28;;;;;;;4.10;3.70;;;;;;;;;;5034646;28;20250;-52
2021/03/18 08:44:29;;;;;;;3.45;3.15;;;;;;;;;;5036896;28;20219;-52
2021/03/18 08:47:00;;;;;;;4.15;3.60;;;;;;;;;;4990949;28;20638;-51
2021/03/18 08:49:33;;;;;;;4.45;3.53;;;;;;;;;;5035818;28;20609;-51
2021/03/18 08:52:03;;;;;;;5.07;3.22;;;;;;;;;;5032508;28;20189;-52
2021/03/18 08:54:55;;;;;;;3.42;3.13;;;;;;;;;;5028087;28;20184;-51
2021/03/18 08:57:21;;;;;;;3.40;3.10;;;;;;;;;;5018823;28;20193;-51
2021/03/18 08:59:49;;;;;;;3.17;2.92;;;;;;;;;;5023357;28;20189;-51
2021/03/18 09:02:16;;;;;;;3.22;2.92;;;;;;;;;;5026618;28;20276;-51
2021/03/18 09:04:42;;;;;;;3.40;3.10;;;;;;;;;;5015168;28;20169;-51
2021/03/18 09:07:12;;;;;;;3.75;3.35;;;;;;;;;;5016187;28;20490;-51
2021/03/18 09:09:38;;;;;;;6.65;3.05;;;;;;;;;;5017067;28;20458;-51
2021/03/18 09:12:06;;;;;;;8.98;3.50;;;;;;;;;;5030011;28;20222;-51
2021/03/18 09:14:32;;;;;;;8.02;3.55;;;;;;;;;;5021135;28;20176;-52
2021/03/18 09:17:03;;;;;;;14.02;5.72;;;;;;;;;;5016482;28;20202;-51
2021/03/18 09:19:30;;;;;;;14.02;5.28;;;;;;;;;;5016397;28;20175;-51
2021/03/18 09:21:56;;;;;;;10.63;4.90;;;;;;;;;;5020895;28;20172;-51
2021/03/18 09:24:21;;;;;;;15.23;4.80;;;;;;;;;;5033992;28;20217;-51
2021/03/18 09:26:47;;;;;;;18.98;6.00;;;;;;;;;;5036147;28;20188;-51
2021/03/18 09:29:14;;;;;;;97.57;22.58;;;;;;;;;;5031192;28;20221;-51
2021/03/18 09:31:40;;;;;;;99.15;24.83;;;;;;;;;;5029253;28;20176;-51
2021/03/18 09:34:06;;;;;;;110.18;23.58;;;;;;;;;;5021331;28;20263;-51
2021/03/18 09:36:33;;;;;;;96.85;20.92;;;;;;;;;;5055573;28;20244;-51
2021/03/18 09:39:11;;;;;;;77.80;18.83;;;;;;;;;;5055678;28;20171;-51
2021/03/18 09:41:41;;;;;;;87.53;19.85;;;;;;;;;;5055306;28;20178;-51
2021/03/18 09:44:07;;;;;;;76.72;19.00;;;;;;;;;;5055077;28;20565;-51
2021/03/18 09:46:33;;;;;;;71.18;18.98;;;;;;;;;;5027585;28;20188;-51
2021/03/18 09:49:00;;;;;;;72.80;19.10;;;;;;;;;;5015504;28;20211;-51
2021/03/18 09:51:26;;;;;;;68.97;19.80;;;;;;;;;;5015843;28;20176;-51
2021/03/18 09:53:56;;;;;;;63.72;17.40;;;;;;;;;;5014958;28;20753;-51
2021/03/18 09:56:23;;;;;;;69.00;18.60;;;;;;;;;;5015324;28;20180;-51
2021/03/18 09:58:49;;;;;;;54.33;17.00;;;;;;;;;;5014869;28;20195;-52
2021/03/18 10:01:15;;;;;;;58.33;16.08;;;;;;;;;;5016490;28;20175;-51
2021/03/18 10:03:51;;;;;;;52.70;17.27;;;;;;;;;;5015577;28;20188;-51
2021/03/18 10:06:23;;;;;;;55.67;16.63;;;;;;;;;;5032459;28;20192;-51
2021/03/18 10:08:49;;;;;;;58.15;16.40;;;;;;;;;;5035276;28;20546;-51
2021/03/18 10:11:16;;;;;;;54.50;15.25;;;;;;;;;;5035426;28;20175;-52
2021/03/18 10:13:43;;;;;;;48.30;14.25;;;;;;;;;;5035076;28;20198;-51
2021/03/18 10:16:10;;;;;;;47.67;14.35;;;;;;;;;;5034654;28;20203;-52
2021/03/18 10:18:38;;;;;;;39.42;14.32;;;;;;;;;;5023796;28;20180;-51
2021/03/18 10:21:05;;;;;;;49.38;14.40;;;;;;;;;;5018976;28;20176;-51
2021/03/18 10:23:31;;;;;;;44.00;14.43;;;;;;;;;;5034555;28;20187;-51
2021/03/18 10:25:57;;;;;;;40.88;13.95;;;;;;;;;;5026570;28;20637;-51
2021/03/18 10:28:29;;;;;;;34.75;13.00;;;;;;;;;;5025949;28;20194;-52
2021/03/18 10:30:55;;;;;;;38.15;13.07;;;;;;;;;;5035115;28;20186;-51
2021/03/18 10:33:22;;;;;;;43.22;13.27;;;;;;;;;;5034863;28;20199;-51
2021/03/18 10:35:55;;;;;;;40.92;12.93;;;;;;;;;;5030564;28;20176;-52
2021/03/18 10:38:32;;;;;;;32.42;12.35;;;;;;;;;;5034951;28;20206;-51
2021/03/18 10:41:17;;;;;;;33.92;11.73;;;;;;;;;;5034775;28;20168;-52
2021/03/18 10:43:48;;;;;;;34.08;12.02;;;;;;;;;;5034156;28;20182;-51
2021/03/18 10:46:18;;;;;;;28.75;10.98;;;;;;;;;;5034501;28;20171;-51
2021/03/18 10:48:49;;;;;;;28.70;10.70;;;;;;;;;;5034845;28;20191;-51
2021/03/18 10:51:16;;;;;;;28.13;10.88;;;;;;;;;;5033165;28;20605;-51
2021/03/18 10:53:44;;;;;;;27.10;10.68;;;;;;;;;;5037516;28;20203;-51
2021/03/18 10:56:12;;;;;;;22.95;9.90;;;;;;;;;;5035011;28;20625;-52
2021/03/18 10:58:38;;;;;;;28.70;10.48;;;;;;;;;;5019044;28;20172;-51
2021/03/18 11:01:08;;;;;;;22.33;9.80;;;;;;;;;;5018972;28;20176;-52
2021/03/18 11:03:36;;;;;;;24.00;10.07;;;;;;;;;;5028598;28;20587;-51
2021/03/18 11:06:13;;;;;;;24.95;9.70;;;;;;;;;;5032190;28;20250;-52
2021/03/18 11:08:41;;;;;;;26.20;9.95;;;;;;;;;;5021586;28;20249;-52
2021/03/18 11:11:12;;;;;;;25.00;9.27;;;;;;;;;;5027302;28;20188;-51
2021/03/18 11:13:41;;;;;;;20.55;8.18;;;;;;;;;;5018770;28;20590;-51
2021/03/18 11:16:07;;;;;;;22.33;9.00;;;;;;;;;;5018125;28;20172;-51
2021/03/18 11:18:34;;;;;;;21.77;9.60;;;;;;;;;;5018439;28;20183;-51
2021/03/18 11:21:00;;;;;;;20.80;9.23;;;;;;;;;;5018535;28;20223;-51
2021/03/18 11:23:28;;;;;;;24.52;8.65;;;;;;;;;;5019768;28;20199;-51
2021/03/18 11:25:58;;;;;;;18.27;8.93;;;;;;;;;;5034429;28;20189;-51
2021/03/18 11:28:24;;;;;;;21.65;8.27;;;;;;;;;;5038390;28;20203;-51
2021/03/18 11:30:50;;;;;;;20.35;8.60;;;;;;;;;;5038188;28;20565;-51
2021/03/18 11:33:17;;;;;;;20.33;8.15;;;;;;;;;;5038091;28;20291;-51
2021/03/18 11:35:45;;;;;;;19.67;8.38;;;;;;;;;;5053045;28;20189;-51
2021/03/18 11:38:11;;;;;;;16.98;7.45;;;;;;;;;;5055449;28;20224;-51
2021/03/18 11:40:37;;;;;;;14.00;7.43;;;;;;;;;;5018234;28;20251;-51
2021/03/18 11:43:04;;;;;;;15.73;7.22;;;;;;;;;;5018341;28;20180;-52
2021/03/18 11:45:31;;;;;;;16.67;7.53;;;;;;;;;;5017393;28;20414;-52
2021/03/18 11:47:57;;;;;;;15.20;6.65;;;;;;;;;;5018391;28;20642;-52
2021/03/18 11:50:23;;;;;;;16.85;7.40;;;;;;;;;;5018267;28;20192;-52
2021/03/18 11:52:49;;;;;;;15.77;7.22;;;;;;;;;;5036082;28;20208;-52
2021/03/18 11:55:16;;;;;;;13.68;6.97;;;;;;;;;;5035787;28;20192;-52
2021/03/18 11:57:42;;;;;;;14.07;6.65;;;;;;;;;;5037773;28;20199;-52
2021/03/18 12:00:10;;;;;;;14.02;6.80;;;;;;;;;;5037599;28;20199;-52
2021/03/18 12:02:36;;;;;;;14.65;6.72;;;;;;;;;;5036116;28;20538;-52
2021/03/18 12:05:02;;;;;;;14.48;6.60;;;;;;;;;;5015935;28;20262;-52
2021/03/18 12:07:28;;;;;;;12.00;6.90;;;;;;;;;;5017863;28;20173;-52
2021/03/18 12:09:54;;;;;;;13.18;6.40;;;;;;;;;;5017547;28;20183;-52
2021/03/18 12:12:20;;;;;;;13.80;6.72;;;;;;;;;;5031280;28;20293;-52
2021/03/18 12:14:46;;;;;;;13.13;5.88;;;;;;;;;;5023819;28;20471;-52
2021/03/18 12:17:12;;;;;;;11.68;5.78;;;;;;;;;;5017569;28;20804;-52
2021/03/18 12:19:38;;;;;;;9.43;5.68;;;;;;;;;;5026079;28;20190;-52
2021/03/18 12:22:04;;;;;;;10.65;5.60;;;;;;;;;;5051685;28;20497;-52
2021/03/18 12:24:30;;;;;;;12.27;5.90;;;;;;;;;;5056657;28;20178;-52
2021/03/18 12:26:56;;;;;;;11.23;5.50;;;;;;;;;;5046723;28;20452;-52
2021/03/18 12:29:22;;;;;;;11.95;6.10;;;;;;;;;;5017050;28;20208;-52
2021/03/18 12:31:48;;;;;;;11.73;5.60;;;;;;;;;;5025005;28;20186;-52
2021/03/18 12:34:14;;;;;;;9.32;5.07;;;;;;;;;;5039609;28;20217;-52
2021/03/18 12:36:40;;;;;;;9.93;4.95;;;;;;;;;;5023226;28;20191;-52
2021/03/18 12:39:06;;;;;;;10.07;4.93;;;;;;;;;;5016192;28;20180;-52
2021/03/18 12:41:33;;;;;;;9.43;5.05;;;;;;;;;;5016925;28;20180;-52
2021/03/18 12:44:00;;;;;;;7.53;4.50;;;;;;;;;;5017592;28;20188;-52
2021/03/18 12:46:26;;;;;;;8.27;4.70;;;;;;;;;;5016835;28;20261;-52
2021/03/18 12:48:52;;;;;;;10.85;5.30;;;;;;;;;;5034213;28;20282;-52
2021/03/18 12:51:18;;;;;;;10.52;4.78;;;;;;;;;;5036491;28;20184;-52
2021/03/18 12:53:44;;;;;;;8.18;4.22;;;;;;;;;;5036517;28;20218;-52
2021/03/18 12:56:10;;;;;;;7.57;4.45;;;;;;;;;;5036093;28;20706;-52
2021/03/18 12:58:36;;;;;;;10.55;4.63;;;;;;;;;;5034861;28;20271;-52
2021/03/18 13:01:03;;;;;;;5.82;3.75;;;;;;;;;;5036515;28;20200;-52
2021/03/18 13:03:29;;;;;;;7.35;3.90;;;;;;;;;;5036540;28;20172;-52
2021/03/18 13:05:55;;;;;;;7.20;4.18;;;;;;;;;;5035885;28;20227;-52
2021/03/18 13:08:21;;;;;;;8.80;4.07;;;;;;;;;;5036502;28;20233;-52
2021/03/18 13:10:48;;;;;;;7.13;3.88;;;;;;;;;;5036307;28;20570;-52
2021/03/18 13:13:14;;;;;;;8.13;4.38;;;;;;;;;;5036005;28;20717;-52
2021/03/18 13:15:40;;;;;;;8.30;4.22;;;;;;;;;;5017996;28;20184;-52
2021/03/18 13:18:06;;;;;;;6.63;3.67;;;;;;;;;;5028780;28;20456;-52
2021/03/18 13:20:32;;;;;;;6.07;3.58;;;;;;;;;;5030812;28;20499;-52
2021/03/18 13:22:58;;;;;;;6.38;3.53;;;;;;;;;;5023311;28;20195;-52
2021/03/18 13:25:24;;;;;;;8.23;3.78;;;;;;;;;;5035348;28;20180;-52
2021/03/18 13:27:50;;;;;;;6.75;3.90;;;;;;;;;;5035787;28;20196;-52
2021/03/18 13:30:21;;;;;;;6.55;3.70;;;;;;;;;;5025410;28;20209;-52
2021/03/18 13:32:47;;;;;;;4.95;3.40;;;;;;;;;;5017228;28;20200;-52
2021/03/18 13:35:13;;;;;;;5.13;3.05;;;;;;;;;;5038109;28;20179;-52
2021/03/18 13:37:39;;;;;;;4.45;3.15;;;;;;;;;;5033093;28;20176;-52
2021/03/18 13:40:06;;;;;;;8.07;4.13;;;;;;;;;;5019205;28;20176;-52
2021/03/18 13:42:33;;;;;;;13.07;5.95;;;;;;;;;;5028997;28;20216;-52
2021/03/18 13:44:59;;;;;;;44.83;16.58;;;;;;;;;;5016696;28;20193;-52
2021/03/18 13:47:25;;;;;;;49.60;17.40;;;;;;;;;;5019956;28;20235;-52
2021/03/18 13:49:51;;;;;;;44.33;18.70;;;;;;;;;;5032261;28;20226;-52
2021/03/18 13:52:17;;;;;;;51.20;18.75;;;;;;;;;;5035502;28;20504;-52
2021/03/18 13:54:43;;;;;;;50.10;18.05;;;;;;;;;;5033155;28;20180;-52
2021/03/18 13:57:10;;;;;;;51.25;17.13;;;;;;;;;;5029226;28;20262;-52
2021/03/18 13:59:36;;;;;;;42.95;14.55;;;;;;;;;;5020146;28;20226;-52
2021/03/18 14:02:02;;;;;;;42.33;15.18;;;;;;;;;;5027596;28;20267;-52
2021/03/18 14:04:28;;;;;;;45.33;14.63;;;;;;;;;;5024550;28;20202;-52
2021/03/18 14:06:54;;;;;;;42.75;14.00;;;;;;;;;;5031006;28;20211;-52
2021/03/18 14:09:20;;;;;;;42.17;13.30;;;;;;;;;;5029558;28;20180;-52
2021/03/18 14:11:46;;;;;;;37.95;12.68;;;;;;;;;;5032014;28;20211;-52
2021/03/18 14:14:12;;;;;;;41.60;12.93;;;;;;;;;;5023529;28;20204;-52
2021/03/18 14:16:38;;;;;;;38.35;12.43;;;;;;;;;;5023166;28;20258;-52
2021/03/18 14:19:08;;;;;;;38.78;12.98;;;;;;;;;;5034382;28;20178;-52
2021/03/18 14:21:34;;;;;;;37.65;11.98;;;;;;;;;;5018577;28;20173;-52
2021/03/18 14:24:00;;;;;;;36.70;11.80;;;;;;;;;;5023717;28;20210;-52
2021/03/18 14:26:26;;;;;;;33.03;10.68;;;;;;;;;;5015161;28;20208;-52
2021/03/18 14:28:52;;;;;;;29.70;10.68;;;;;;;;;;5022352;28;20184;-52
2021/03/18 14:31:18;;;;;;;30.33;10.00;;;;;;;;;;5019096;28;20185;-52
2021/03/18 14:33:44;;;;;;;32.28;10.02;;;;;;;;;;5034936;28;20269;-52
2021/03/18 14:36:10;;;;;;;28.00;9.55;;;;;;;;;;5049641;28;20179;-52
2021/03/18 14:38:37;;;;;;;27.33;9.98;;;;;;;;;;5016270;28;20578;-52
2021/03/18 14:41:03;;;;;;;26.15;10.93;;;;;;;;;;5026262;28;20181;-52